Airfield :







YOU CAN JOIN US ON...

 
LOGIN :

Register | Disclaimer

   EN    FR    IT 

 









Legend :    VFR   Marginal VFR   IFR   Intensive IFR   Very Intensive IFR
Visi :
Ceiling :
>= 8 km
>= 3000ft
5 to 8 km
1000 to 3000 ft
1500m to 5 km
500 to 1000 ft
800 to 1500m
200 to 500 ft
< 800m
< 200 ft
Symbols :   Thunderstorms  Fog  Heavy snow  Heavy precipitations  Wind > 20 kt






- Airport Elevation : 342 ft


KCON - Concord Municipal

CURRENT METAR :
  • 192151Z AUTO 29006KT 10SM CLR 27/11 A3005 RMK AO2 SLP173 T02720111

EXPIRED METARs :
  • 192051Z AUTO 28007KT 10SM FEW070 29/11 A3004 RMK AO2 SLP172 T02890111 56006
  • 191951Z AUTO VRB05KT 10SM FEW065 28/12 A3004 RMK AO2 SLP172 T02830122
  • 191851Z AUTO 33006KT 10SM FEW065 27/13 A3006 RMK AO2 SLP177 T02720128
  • 191751Z AUTO 34008KT 10SM CLR 28/12 A3006 RMK AO2 SLP178 T02780122 10278 20189 56009

TAF KCON
Valid from the 19 at 18:00 until the 20 at 18:00 UTC


191727Z 1918/2018 29008KT P6SM FEW060
FM200000 VRB04KT P6SM SKC
FM201400 26008KT P6SM FEW050 SCT250
KZBW FIR / North America



MET'MAP, your aeronautical weather chart ! - Copyright ORBIFLY December 2007 - Disclaimer

ORBIFLY MET'MAP TEAM :

Programming & Development : Alexandra Zaïnal
Original concept : Baudouin d'Aumeries
Technical & hardware support : Manuel Goepfert
Assistance : Marc-Olivier Méhu




SOURCES & CREDITS :

   NOAA